sensor_id;sensor_type;location;lat;lon;timestamp;pressure;altitude;pressure_sealevel;temperature;humidity
37068;BME280;22982;42.848;25.468;2022-09-27T00:02:10;95279.97;;;14.51;100.00
37068;BME280;22982;42.848;25.468;2022-09-27T00:07:12;95264.16;;;14.51;100.00
37068;BME280;22982;42.848;25.468;2022-09-27T00:12:14;95255.00;;;14.26;100.00
37068;BME280;22982;42.848;25.468;2022-09-27T00:17:17;95270.41;;;14.40;100.00
37068;BME280;22982;42.848;25.468;2022-09-27T00:22:19;95248.72;;;14.46;100.00
37068;BME280;22982;42.848;25.468;2022-09-27T00:27:21;95243.19;;;14.40;100.00
37068;BME280;22982;42.848;25.468;2022-09-27T00:32:23;95256.06;;;14.52;100.00
37068;BME280;22982;42.848;25.468;2022-09-27T00:37:26;95242.31;;;14.49;100.00
37068;BME280;22982;42.848;25.468;2022-09-27T00:42:28;95214.59;;;14.25;100.00
37068;BME280;22982;42.848;25.468;2022-09-27T00:47:40;95204.06;;;14.35;100.00
37068;BME280;22982;42.848;25.468;2022-09-27T00:57:53;95234.72;;;14.46;100.00
37068;BME280;22982;42.848;25.468;2022-09-27T01:02:56;95217.09;;;14.46;100.00
37068;BME280;22982;42.848;25.468;2022-09-27T01:07:59;95193.09;;;14.30;100.00
37068;BME280;22982;42.848;25.468;2022-09-27T01:13:29;95225.03;;;14.36;100.00
37068;BME280;22982;42.848;25.468;2022-09-27T01:18:43;95234.41;;;14.49;100.00
37068;BME280;22982;42.848;25.468;2022-09-27T01:35:24;95229.72;;;14.43;100.00
37068;BME280;22982;42.848;25.468;2022-09-27T01:46:19;95206.16;;;14.31;100.00
37068;BME280;22982;42.848;25.468;2022-09-27T01:51:59;95237.34;;;14.36;100.00
37068;BME280;22982;42.848;25.468;2022-09-27T01:57:06;95187.75;;;14.02;100.00
37068;BME280;22982;42.848;25.468;2022-09-27T02:02:11;95214.91;;;14.22;100.00
37068;BME280;22982;42.848;25.468;2022-09-27T02:07:45;95213.50;;;14.28;100.00
37068;BME280;22982;42.848;25.468;2022-09-27T02:19:31;95210.69;;;14.49;100.00
37068;BME280;22982;42.848;25.468;2022-09-27T02:24:04;95227.22;;;14.61;100.00
37068;BME280;22982;42.848;25.468;2022-09-27T02:29:19;95230.00;;;14.40;100.00
37068;BME280;22982;42.848;25.468;2022-09-27T02:34:28;95225.41;;;14.42;100.00
37068;BME280;22982;42.848;25.468;2022-09-27T02:39:32;95189.22;;;14.24;100.00
37068;BME280;22982;42.848;25.468;2022-09-27T02:44:38;95194.63;;;14.32;100.00
37068;BME280;22982;42.848;25.468;2022-09-27T02:50:06;95225.41;;;14.61;100.00
37068;BME280;22982;42.848;25.468;2022-09-27T03:00:54;95212.63;;;14.66;100.00
37068;BME280;22982;42.848;25.468;2022-09-27T03:06:24;95170.44;;;14.47;100.00
37068;BME280;22982;42.848;25.468;2022-09-27T03:11:28;95190.97;;;14.53;100.00
37068;BME280;22982;42.848;25.468;2022-09-27T03:16:30;95189.03;;;14.55;100.00
37068;BME280;22982;42.848;25.468;2022-09-27T03:21:49;95180.47;;;14.33;100.00
37068;BME280;22982;42.848;25.468;2022-09-27T03:26:51;95207.06;;;14.69;100.00
37068;BME280;22982;42.848;25.468;2022-09-27T03:31:54;95170.66;;;14.73;100.00
37068;BME280;22982;42.848;25.468;2022-09-27T03:37:25;95166.50;;;14.70;100.00
37068;BME280;22982;42.848;25.468;2022-09-27T03:42:30;95188.19;;;14.64;100.00
37068;BME280;22982;42.848;25.468;2022-09-27T03:47:33;95189.53;;;14.78;100.00
37068;BME280;22982;42.848;25.468;2022-09-27T03:52:35;95186.59;;;14.81;100.00
37068;BME280;22982;42.848;25.468;2022-09-27T03:57:43;95194.75;;;14.88;100.00
37068;BME280;22982;42.848;25.468;2022-09-27T04:02:46;95171.28;;;14.85;100.00
37068;BME280;22982;42.848;25.468;2022-09-27T04:07:55;95142.66;;;14.62;100.00
37068;BME280;22982;42.848;25.468;2022-09-27T04:12:58;95107.69;;;14.60;100.00
37068;BME280;22982;42.848;25.468;2022-09-27T04:18:05;95129.38;;;14.82;100.00
37068;BME280;22982;42.848;25.468;2022-09-27T04:23:07;95119.00;;;14.70;100.00
37068;BME280;22982;42.848;25.468;2022-09-27T04:28:15;95146.81;;;14.55;100.00
37068;BME280;22982;42.848;25.468;2022-09-27T04:33:18;95130.16;;;14.54;100.00
37068;BME280;22982;42.848;25.468;2022-09-27T04:38:20;95078.53;;;14.52;100.00
37068;BME280;22982;42.848;25.468;2022-09-27T04:43:25;95094.56;;;14.68;100.00
37068;BME280;22982;42.848;25.468;2022-09-27T04:48:28;95107.59;;;14.98;100.00
37068;BME280;22982;42.848;25.468;2022-09-27T04:53:30;95071.13;;;14.93;100.00
37068;BME280;22982;42.848;25.468;2022-09-27T04:58:33;95090.50;;;15.02;100.00
37068;BME280;22982;42.848;25.468;2022-09-27T05:03:37;95051.66;;;14.94;100.00
37068;BME280;22982;42.848;25.468;2022-09-27T05:08:45;95100.88;;;15.31;100.00
37068;BME280;22982;42.848;25.468;2022-09-27T05:14:00;95099.66;;;15.43;100.00
37068;BME280;22982;42.848;25.468;2022-09-27T05:19:03;95056.22;;;15.20;100.00
37068;BME280;22982;42.848;25.468;2022-09-27T05:24:34;95083.19;;;15.49;100.00
37068;BME280;22982;42.848;25.468;2022-09-27T05:29:40;95045.19;;;15.24;100.00
37068;BME280;22982;42.848;25.468;2022-09-27T05:34:51;95069.09;;;15.41;100.00
37068;BME280;22982;42.848;25.468;2022-09-27T05:39:55;95030.38;;;15.49;100.00
37068;BME280;22982;42.848;25.468;2022-09-27T05:44:57;95031.25;;;16.02;100.00
37068;BME280;22982;42.848;25.468;2022-09-27T05:50:04;95061.88;;;16.13;100.00
37068;BME280;22982;42.848;25.468;2022-09-27T05:55:06;95060.50;;;16.01;100.00
37068;BME280;22982;42.848;25.468;2022-09-27T06:00:12;95014.25;;;15.79;100.00
37068;BME280;22982;42.848;25.468;2022-09-27T06:05:21;95047.31;;;16.09;100.00
37068;BME280;22982;42.848;25.468;2022-09-27T06:10:42;95035.25;;;15.80;100.00
37068;BME280;22982;42.848;25.468;2022-09-27T06:15:45;95072.13;;;16.08;100.00
37068;BME280;22982;42.848;25.468;2022-09-27T06:20:48;95105.06;;;16.22;100.00
37068;BME280;22982;42.848;25.468;2022-09-27T06:25:51;95063.13;;;16.27;100.00
37068;BME280;22982;42.848;25.468;2022-09-27T06:30:57;95035.63;;;16.12;100.00
37068;BME280;22982;42.848;25.468;2022-09-27T06:36:09;95101.25;;;16.77;100.00
37068;BME280;22982;42.848;25.468;2022-09-27T06:41:13;95055.91;;;16.72;100.00
37068;BME280;22982;42.848;25.468;2022-09-27T06:46:51;95041.47;;;17.17;100.00
37068;BME280;22982;42.848;25.468;2022-09-27T06:52:08;95050.75;;;17.70;100.00
37068;BME280;22982;42.848;25.468;2022-09-27T06:57:11;95062.50;;;18.17;100.00
37068;BME280;22982;42.848;25.468;2022-09-27T07:02:33;95012.41;;;18.30;100.00
37068;BME280;22982;42.848;25.468;2022-09-27T07:08:30;95057.78;;;18.52;100.00
37068;BME280;22982;42.848;25.468;2022-09-27T07:19:12;95030.41;;;18.51;100.00
37068;BME280;22982;42.848;25.468;2022-09-27T07:24:18;95042.69;;;18.44;100.00
37068;BME280;22982;42.848;25.468;2022-09-27T07:29:49;95033.81;;;18.21;100.00
37068;BME280;22982;42.848;25.468;2022-09-27T07:35:03;95043.50;;;17.89;100.00
37068;BME280;22982;42.848;25.468;2022-09-27T07:40:09;95068.97;;;18.23;100.00
37068;BME280;22982;42.848;25.468;2022-09-27T07:45:12;95019.94;;;18.02;100.00
37068;BME280;22982;42.848;25.468;2022-09-27T07:50:35;95054.09;;;17.97;100.00
37068;BME280;22982;42.848;25.468;2022-09-27T07:55:57;95056.53;;;18.23;100.00
37068;BME280;22982;42.848;25.468;2022-09-27T08:01:17;95047.44;;;18.09;100.00
37068;BME280;22982;42.848;25.468;2022-09-27T08:12:05;95030.94;;;18.39;100.00
37068;BME280;22982;42.848;25.468;2022-09-27T08:17:17;95018.25;;;18.65;100.00
37068;BME280;22982;42.848;25.468;2022-09-27T08:27:58;95049.47;;;18.94;100.00
37068;BME280;22982;42.848;25.468;2022-09-27T08:33:11;95025.78;;;19.16;100.00
37068;BME280;22982;42.848;25.468;2022-09-27T08:38:13;95055.84;;;19.40;100.00
37068;BME280;22982;42.848;25.468;2022-09-27T08:48:41;95024.41;;;19.66;100.00
37068;BME280;22982;42.848;25.468;2022-09-27T08:53:59;95044.13;;;19.80;100.00
37068;BME280;22982;42.848;25.468;2022-09-27T08:59:13;95018.50;;;19.56;100.00
37068;BME280;22982;42.848;25.468;2022-09-27T09:04:31;95035.81;;;19.98;100.00
37068;BME280;22982;42.848;25.468;2022-09-27T09:16:15;95021.28;;;20.90;100.00
37068;BME280;22982;42.848;25.468;2022-09-27T09:43:55;94941.47;;;21.96;96.95
37068;BME280;22982;42.848;25.468;2022-09-27T09:50:00;94909.72;;;23.38;83.70
37068;BME280;22982;42.848;25.468;2022-09-27T09:55:44;94928.44;;;23.65;78.93
37068;BME280;22982;42.848;25.468;2022-09-27T10:00:57;94891.44;;;24.40;69.94
37068;BME280;22982;42.848;25.468;2022-09-27T10:06:03;94908.59;;;24.78;74.44
37068;BME280;22982;42.848;25.468;2022-09-27T10:11:19;94942.16;;;24.87;57.39
37068;BME280;22982;42.848;25.468;2022-09-27T10:17:15;94874.69;;;24.52;53.59
37068;BME280;22982;42.848;25.468;2022-09-27T10:22:30;94889.22;;;24.31;54.49
37068;BME280;22982;42.848;25.468;2022-09-27T10:27:49;94897.53;;;25.06;60.44
37068;BME280;22982;42.848;25.468;2022-09-27T10:33:19;94874.81;;;25.40;50.79
37068;BME280;22982;42.848;25.468;2022-09-27T10:39:23;94893.78;;;26.82;45.25
37068;BME280;22982;42.848;25.468;2022-09-27T10:45:30;94877.56;;;27.30;43.28
37068;BME280;22982;42.848;25.468;2022-09-27T10:51:04;94849.38;;;26.61;44.70
37068;BME280;22982;42.848;25.468;2022-09-27T12:13:00;94834.03;;;26.31;45.99
37068;BME280;22982;42.848;25.468;2022-09-27T12:31:03;94858.34;;;26.85;45.42
37068;BME280;22982;42.848;25.468;2022-09-27T16:08:29;94801.34;;;19.27;100.00
37068;BME280;22982;42.848;25.468;2022-09-27T16:14:16;94860.63;;;19.27;100.00
37068;BME280;22982;42.848;25.468;2022-09-27T17:00:50;94880.97;;;18.74;100.00
37068;BME280;22982;42.848;25.468;2022-09-27T17:05:53;94911.69;;;18.37;100.00
37068;BME280;22982;42.848;25.468;2022-09-27T17:10:55;94942.28;;;18.56;100.00
37068;BME280;22982;42.848;25.468;2022-09-27T17:15:58;94916.50;;;18.02;100.00
37068;BME280;22982;42.848;25.468;2022-09-27T17:21:02;94961.59;;;18.02;100.00
37068;BME280;22982;42.848;25.468;2022-09-27T17:26:14;94966.09;;;18.02;100.00
37068;BME280;22982;42.848;25.468;2022-09-27T17:31:17;94951.69;;;17.88;100.00
37068;BME280;22982;42.848;25.468;2022-09-27T17:36:22;94938.59;;;17.78;100.00
37068;BME280;22982;42.848;25.468;2022-09-27T17:41:26;94958.31;;;17.92;100.00
37068;BME280;22982;42.848;25.468;2022-09-27T17:46:31;94927.19;;;17.69;100.00
37068;BME280;22982;42.848;25.468;2022-09-27T17:51:37;94929.88;;;17.45;100.00
37068;BME280;22982;42.848;25.468;2022-09-27T17:56:41;94954.69;;;17.68;100.00
37068;BME280;22982;42.848;25.468;2022-09-27T18:01:45;95055.09;;;17.88;100.00
37068;BME280;22982;42.848;25.468;2022-09-27T18:06:48;95167.72;;;17.51;100.00
37068;BME280;22982;42.848;25.468;2022-09-27T18:11:51;95232.56;;;17.30;100.00
37068;BME280;22982;42.848;25.468;2022-09-27T18:16:53;95233.34;;;16.88;100.00
37068;BME280;22982;42.848;25.468;2022-09-27T18:21:58;95185.94;;;16.77;97.87
37068;BME280;22982;42.848;25.468;2022-09-27T18:27:01;95186.72;;;15.99;100.00
37068;BME280;22982;42.848;25.468;2022-09-27T18:32:05;95210.16;;;15.76;100.00
37068;BME280;22982;42.848;25.468;2022-09-27T18:37:07;95163.69;;;15.09;100.00
37068;BME280;22982;42.848;25.468;2022-09-27T18:42:09;95157.94;;;14.49;100.00
37068;BME280;22982;42.848;25.468;2022-09-27T18:47:11;95112.84;;;13.85;100.00
37068;BME280;22982;42.848;25.468;2022-09-27T18:52:14;95122.00;;;14.01;100.00
37068;BME280;22982;42.848;25.468;2022-09-27T18:57:16;95115.09;;;13.90;100.00
37068;BME280;22982;42.848;25.468;2022-09-27T19:02:18;95103.00;;;13.87;100.00
37068;BME280;22982;42.848;25.468;2022-09-27T19:07:21;95060.47;;;13.72;100.00
37068;BME280;22982;42.848;25.468;2022-09-27T19:12:23;95063.25;;;13.71;100.00
37068;BME280;22982;42.848;25.468;2022-09-27T19:17:25;95070.47;;;13.69;100.00
37068;BME280;22982;42.848;25.468;2022-09-27T19:22:28;95078.25;;;13.61;100.00
37068;BME280;22982;42.848;25.468;2022-09-27T19:27:30;95053.69;;;13.60;100.00
37068;BME280;22982;42.848;25.468;2022-09-27T19:32:32;95066.44;;;13.65;100.00
37068;BME280;22982;42.848;25.468;2022-09-27T19:37:34;95083.72;;;13.87;100.00
37068;BME280;22982;42.848;25.468;2022-09-27T19:42:37;95032.63;;;13.60;100.00
37068;BME280;22982;42.848;25.468;2022-09-27T19:47:39;95065.47;;;13.66;100.00
37068;BME280;22982;42.848;25.468;2022-09-27T19:52:41;95079.19;;;13.79;100.00
37068;BME280;22982;42.848;25.468;2022-09-27T19:57:44;95079.00;;;13.90;100.00
37068;BME280;22982;42.848;25.468;2022-09-27T20:02:46;95039.09;;;13.85;100.00
37068;BME280;22982;42.848;25.468;2022-09-27T20:07:49;95071.78;;;13.92;100.00
37068;BME280;22982;42.848;25.468;2022-09-27T20:12:54;95057.94;;;13.90;100.00
37068;BME280;22982;42.848;25.468;2022-09-27T20:17:56;95067.00;;;14.15;100.00
37068;BME280;22982;42.848;25.468;2022-09-27T20:22:58;95078.38;;;14.16;100.00
37068;BME280;22982;42.848;25.468;2022-09-27T20:28:01;95091.22;;;13.91;100.00
37068;BME280;22982;42.848;25.468;2022-09-27T20:33:03;95101.47;;;13.94;100.00
37068;BME280;22982;42.848;25.468;2022-09-27T20:38:24;95086.25;;;13.69;100.00
37068;BME280;22982;42.848;25.468;2022-09-27T20:43:26;95096.25;;;13.75;100.00
37068;BME280;22982;42.848;25.468;2022-09-27T20:48:29;95070.72;;;13.66;100.00
37068;BME280;22982;42.848;25.468;2022-09-27T20:53:32;95115.78;;;13.82;100.00
37068;BME280;22982;42.848;25.468;2022-09-27T20:58:34;95110.94;;;13.77;100.00
37068;BME280;22982;42.848;25.468;2022-09-27T21:03:36;95144.34;;;13.77;100.00
37068;BME280;22982;42.848;25.468;2022-09-27T21:08:39;95134.50;;;13.59;100.00
37068;BME280;22982;42.848;25.468;2022-09-27T21:13:43;95164.44;;;13.78;100.00
37068;BME280;22982;42.848;25.468;2022-09-27T21:18:48;95134.09;;;13.54;100.00
37068;BME280;22982;42.848;25.468;2022-09-27T21:23:56;95150.31;;;13.59;100.00
37068;BME280;22982;42.848;25.468;2022-09-27T21:29:02;95156.69;;;13.47;100.00
37068;BME280;22982;42.848;25.468;2022-09-27T21:34:06;95149.47;;;13.39;100.00
37068;BME280;22982;42.848;25.468;2022-09-27T21:39:08;95158.56;;;13.26;100.00
37068;BME280;22982;42.848;25.468;2022-09-27T21:44:11;95160.06;;;13.18;100.00
37068;BME280;22982;42.848;25.468;2022-09-27T21:49:13;95164.69;;;13.26;100.00
37068;BME280;22982;42.848;25.468;2022-09-27T21:54:15;95156.31;;;13.11;100.00
37068;BME280;22982;42.848;25.468;2022-09-27T21:59:18;95147.97;;;12.96;100.00
37068;BME280;22982;42.848;25.468;2022-09-27T22:04:20;95164.50;;;13.08;100.00
37068;BME280;22982;42.848;25.468;2022-09-27T22:09:22;95164.56;;;12.87;100.00
37068;BME280;22982;42.848;25.468;2022-09-27T22:14:24;95147.59;;;12.60;100.00
37068;BME280;22982;42.848;25.468;2022-09-27T22:19:26;95164.25;;;12.71;100.00
37068;BME280;22982;42.848;25.468;2022-09-27T22:24:29;95159.56;;;12.74;100.00
37068;BME280;22982;42.848;25.468;2022-09-27T22:29:31;95180.03;;;12.71;100.00
37068;BME280;22982;42.848;25.468;2022-09-27T22:34:33;95166.44;;;12.66;100.00
37068;BME280;22982;42.848;25.468;2022-09-27T22:39:35;95171.38;;;12.59;100.00
37068;BME280;22982;42.848;25.468;2022-09-27T22:44:37;95171.03;;;12.42;100.00
37068;BME280;22982;42.848;25.468;2022-09-27T22:49:40;95204.63;;;12.60;100.00
37068;BME280;22982;42.848;25.468;2022-09-27T22:54:42;95175.47;;;12.21;100.00
37068;BME280;22982;42.848;25.468;2022-09-27T22:59:47;95203.19;;;12.25;100.00
37068;BME280;22982;42.848;25.468;2022-09-27T23:04:49;95183.81;;;12.05;100.00
37068;BME280;22982;42.848;25.468;2022-09-27T23:09:51;95200.59;;;12.14;100.00
37068;BME280;22982;42.848;25.468;2022-09-27T23:14:53;95200.91;;;11.99;100.00
37068;BME280;22982;42.848;25.468;2022-09-27T23:19:56;95174.28;;;11.72;100.00
37068;BME280;22982;42.848;25.468;2022-09-27T23:24:58;95173.06;;;11.43;100.00
37068;BME280;22982;42.848;25.468;2022-09-27T23:30:01;95169.34;;;11.57;100.00
37068;BME280;22982;42.848;25.468;2022-09-27T23:35:04;95166.06;;;11.44;100.00
37068;BME280;22982;42.848;25.468;2022-09-27T23:40:07;95191.91;;;11.48;100.00
37068;BME280;22982;42.848;25.468;2022-09-27T23:45:10;95174.91;;;11.32;100.00
37068;BME280;22982;42.848;25.468;2022-09-27T23:50:12;95156.09;;;11.26;100.00
37068;BME280;22982;42.848;25.468;2022-09-27T23:55:15;95177.97;;;11.48;100.00
